Flight Track Log - Related Links

Times and Time Zones

All times are in EDT time to prevent confusion due to time zone crossing. See the UAL118 flight status page for this flight to view local times or setup timezone preferences in your user account.

Time Position Orientation Groundspeed Altitude Reporting Facility
EDT Latitude Longitude Course Direction KTS MPH feet Rate Location/Type
Fri 03:22:47 AM 50.0210 8.5280 249° West 171 197 1,300  Level FlightAware ADS-B
Fri 03:23:02 AM 50.0170 8.5110 250° West 171 197 2,000 2,400 Climbing FlightAware ADS-B
Fri 03:23:17 AM 50.0170 8.4930 270° West 173 199 2,500 1,950 Climbing FlightAware ADS-B
Fri 03:23:42 AM 50.0190 8.4640 276° West 176 203 3,300 1,745 Climbing FlightAware ADS-B
Fri 03:24:12 AM 50.0180 8.4250 268° West 204 235 4,100 1,418 Climbing FlightAware ADS-B
Fri 03:24:37 AM 50.0130 8.3900 257° West 226 260 4,600 1,745 Climbing FlightAware ADS-B
Fri 03:25:07 AM 50.0070 8.3350 260° West 249 287 5,700 2,200 Climbing FlightAware ADS-B
Fri 03:25:37 AM 50.0030 8.2780 264° West 260 299 6,800 1,733 Climbing FlightAware ADS-B
Fri 03:25:52 AM 50.0070 8.2560 286° West 262 302 7,000 1,745 Climbing FlightAware ADS-B
Fri 03:26:32 AM 50.0290 8.1830 295° West 255 293 8,400 2,308 Climbing FlightAware ADS-B
Fri 03:26:57 AM 50.0400 8.1430 293° West 257 296 9,500 2,143 Climbing FlightAware ADS-B
Fri 03:27:42 AM 50.0740 8.0670 305° West 290 334 10,900 1,553 Climbing FlightAware ADS-B
Fri 03:28:22 AM 50.1140 8.0030 314° West 336 387 11,700 1,050 Climbing FlightAware ADS-B
Fri 03:29:02 AM 50.1670 7.9450 325° Northwest 369 425 12,300 1,125 Climbing FlightAware ADS-B
Fri 03:29:42 AM 50.2280 7.8820 327° Northwest 403 464 13,200 1,800 Climbing FlightAware ADS-B
Fri 03:30:32 AM 50.3060 7.8000 326° Northwest 413 475 15,000 2,118 Climbing FlightAware ADS-B
Fri 03:31:07 AM 50.3610 7.7420 326° Northwest 421 484 16,200 1,976 Climbing FlightAware ADS-B
Fri 03:31:57 AM 50.4380 7.6600 326° Northwest 430 495 17,800 1,933 Climbing FlightAware ADS-B
Fri 03:32:37 AM 50.5070 7.5870 326° Northwest 436 502 19,100 1,800 Climbing FlightAware ADS-B
Fri 03:33:17 AM 50.5730 7.5150 325° Northwest 444 511 20,200 1,600 Climbing FlightAware ADS-B
Fri 03:33:52 AM 50.6390 7.4450 326° Northwest 454 522 21,100 1,553 Climbing FlightAware ADS-B
Fri 03:34:42 AM 50.7170 7.3560 324° Northwest 450 518 22,400 2,067 Climbing FlightAware ADS-B
Fri 03:35:22 AM 50.7720 7.2540 310° West 411 473 24,200 1,835 Climbing FlightAware ADS-B
Fri 03:36:07 AM 50.8040 7.1500 296° West 406 467 25,000 1,059 Climbing FlightAware ADS-B
Fri 03:36:47 AM 50.8400 7.0230 294° West 421 484 25,700 1,011 Climbing FlightAware ADS-B
Fri 03:37:42 AM 50.8820 6.8710 294° West 433 498 26,600 1,364 Climbing FlightAware ADS-B
Fri 03:38:37 AM 50.9290 6.7020 294° West 430 495 28,200 1,740 Climbing FlightAware ADS-B
Fri 03:39:22 AM 50.9660 6.5680 294° West 423 487 29,500 1,533 Climbing FlightAware ADS-B
Fri 03:40:07 AM 51.0000 6.4440 294° West 421 484 30,500 1,271 Climbing FlightAware ADS-B
Fri 03:40:47 AM 51.0330 6.3260 294° West 420 483 31,300 1,125 Climbing FlightAware ADS-B
Fri 03:41:27 AM 51.0610 6.2210 293° West 419 482 32,000 494 Climbing FlightAware ADS-B
Fri 03:42:12 AM 51.0950 6.0970 294° West 418 481 32,000  Level FlightAware ADS-B
Fri 03:42:52 AM 51.1110 5.9750 282° West 391 450 32,000  Level FlightAware ADS-B
Fri 03:43:37 AM 51.1150 5.8520 273° West 396 456 32,000  Level FlightAware ADS-B
Fri 03:44:17 AM 51.1250 5.7350 278° West 402 463 32,000  Level FlightAware ADS-B
Fri 03:44:57 AM 51.1390 5.6160 281° West 404 465 32,000  Level FlightAware ADS-B
Fri 03:45:42 AM 51.1550 5.4840 281° West 405 466 32,000  Level FlightAware ADS-B
Fri 03:46:22 AM 51.1670 5.3750 280° West 406 467 32,000  Level FlightAware ADS-B
Fri 03:47:02 AM 51.1820 5.2430 280° West 407 468 32,000  Level FlightAware ADS-B
Fri 03:47:47 AM 51.1960 5.1100 280° West 411 473 32,000  Level FlightAware ADS-B
Fri 03:48:27 AM 51.2090 4.9900 280° West 414 476 32,000  Level FlightAware ADS-B
Fri 03:49:12 AM 51.2230 4.8530 279° West 415 478 32,000 -1,324 Level FlightAware ADS-B
Fri 03:49:35 AM 51.2498 4.7776 279° West 474 545 30,500  Descending FlightAware UK
Fri 03:49:52 AM 51.2360 4.7310 279° West 417 480 32,000 1,579 Climbing FlightAware ADS-B
Fri 03:50:32 AM 51.2490 4.6090 280° West 417 480 32,000 -1,636 Level FlightAware ADS-B
Fri 03:50:47 AM 51.2719 4.5583 280° West 474 545 30,500 -2,727 Descending FlightAware UK
Fri 03:51:05 AM 51.2783 4.5043 281° West 474 545 30,500 3,000 Level FlightAware UK
Fri 03:51:17 AM 51.2630 4.4750 281° West 420 483 32,000 1,731 Climbing FlightAware ADS-B
Fri 03:51:57 AM 51.2750 4.3520 279° West 421 484 32,000  Level FlightAware ADS-B
Fri 03:52:42 AM 51.2890 4.2170 279° West 423 487 32,000  Level FlightAware ADS-B
Fri 03:53:22 AM 51.3010 4.0940 279° West 424 488 32,000  Level FlightAware ADS-B
Fri 03:54:07 AM 51.3150 3.9580 279° West 426 490 32,000  Level FlightAware ADS-B
Fri 03:54:47 AM 51.3260 3.8360 278° West 427 491 32,000 -1,552 Level FlightAware ADS-B
Fri 03:55:05 AM 51.3530 3.7645 278° West 478 550 30,500 -2,500 Descending FlightAware UK
Fri 03:55:23 AM 51.3588 3.7083 279° West 476 548 30,500 4,091 Level FlightAware UK
Fri 03:55:27 AM 51.3380 3.7150 279° West 428 493 32,000  Climbing FlightAware ADS-B
Fri 03:55:47 AM 51.3658 3.6330 279° West 476 548 30,500  Descending FlightAware UK
Fri 03:56:07 AM 51.3510 3.5800 279° West 429 494 32,000  Climbing FlightAware ADS-B
Fri 03:56:23 AM 51.3769 3.5202 279° West 474 545 30,500 -2,647 Descending FlightAware UK
Fri 03:56:41 AM 51.3818 3.4632 278° West 476 548 30,500 3,750 Level FlightAware UK
Fri 03:56:47 AM 51.3620 3.4640 278° West 431 496 32,000  Climbing FlightAware ADS-B
Fri 03:57:05 AM 51.3891 3.3875 278° West 474 545 30,500 -2,500 Descending FlightAware UK
Fri 03:57:23 AM 51.3943 3.3306 278° West 474 545 30,500 2,813 Level FlightAware UK
Fri 03:57:37 AM 51.3770 3.3080 278° West 432 497 32,000  Climbing FlightAware ADS-B
Fri 03:57:53 AM 51.4032 3.2358 278° West 476 548 30,500  Descending FlightAware UK
Fri 03:58:17 AM 51.3880 3.1810 278° West 435 501 32,000  Climbing FlightAware ADS-B
Fri 03:58:35 AM 51.4163 3.1029 278° West 476 548 30,500 -2,500 Descending FlightAware UK
Fri 03:58:53 AM 51.4213 3.0455 278° West 478 550 30,500 4,091 Level FlightAware UK
Fri 03:58:57 AM 51.3990 3.0610 278° West 437 503 32,000  Climbing FlightAware ADS-B
Fri 03:59:17 AM 51.4273 2.9683 278° West 476 548 30,500 -2,432 Descending FlightAware UK
Fri 03:59:34 AM 51.4319 2.9108 277° West 480 552 30,500 3,600 Level FlightAware UK
Fri 03:59:42 AM 51.4120 2.9150 277° West 437 503 32,000 1,875 Climbing FlightAware ADS-B
Fri 04:00:22 AM 51.4240 2.7810 278° West 438 504 32,000 -1,385 Level FlightAware ADS-B
Fri 04:00:47 AM 51.4530 2.6784 278° West 478 550 30,500  Descending FlightAware UK
Fri 04:01:02 AM 51.4360 2.6520 278° West 439 505 32,000  Climbing FlightAware ADS-B
Fri 04:01:17 AM 51.4618 2.5821 278° West 478 550 30,500 -2,727 Descending FlightAware UK
Fri 04:01:35 AM 51.4670 2.5242 278° West 480 552 30,500 3,000 Level FlightAware UK
Fri 04:01:47 AM 51.4480 2.5080 278° West 441 507 32,000 5,625 Climbing FlightAware ADS-B
Fri 04:01:51 AM 51.4510 2.4750 278° West 441 507 32,000  Level FlightAware ADS-B
Fri 04:02:22 AM 51.4595 2.3766 278° West 442 509 32,000 -1,837 Level FlightAware ADS-B
Fri 04:02:40 AM 51.4848 2.3103 278° West 480 552 30,500  Descending FlightAware UK
Fri 04:02:56 AM 51.4689 2.2650 278° West 443 510 32,000  Climbing FlightAware ADS-B
Fri 04:03:16 AM 51.4943 2.1931 278° West 478 550 30,500  Descending FlightAware UK
Fri 04:03:26 AM 51.4770 2.1670 278° West 443 510 32,000  Climbing FlightAware ADS-B
Fri 04:03:46 AM 51.5026 2.0969 278° West 478 550 30,500  Descending FlightAware UK
Fri 04:03:56 AM 51.4851 2.0696 278° West 444 511 32,000 2,250 Climbing FlightAware ADS-B
Fri 04:04:26 AM 51.4932 1.9713 278° West 444 511 32,000 -1,800 Level FlightAware ADS-B
Fri 04:04:46 AM 51.5184 1.9008 278° West 478 550 30,500  Descending FlightAware UK
Fri 04:04:56 AM 51.5013 1.8722 278° West 445 512 32,000  Climbing FlightAware ADS-B
Fri 04:05:16 AM 51.5264 1.8031 278° West 476 548 30,500  Descending FlightAware UK
Fri 04:05:30 AM 51.5101 1.7635 278° West 445 512 32,000  Climbing FlightAware ADS-B
Fri 04:05:52 AM 51.5313 1.6854 278° West 480 552 30,500  Descending FlightAware UK
Fri 04:06:00 AM 51.5120 1.6639 278° West 442 509 32,000  Climbing FlightAware ADS-B
Fri 04:06:28 AM 51.5301 1.5679 278° West 478 550 30,500  Descending FlightAware UK
Fri 04:06:34 AM 51.5101 1.5529 278° West 441 507 32,000  Climbing FlightAware ADS-B
Fri 04:06:52 AM 51.5289 1.4895 278° West 478 550 30,500  Descending FlightAware UK
Fri 04:07:05 AM 51.5092 1.4535 278° West 442 509 32,000  Climbing FlightAware ADS-B
Fri 04:07:28 AM 51.5282 1.3718 278° West 478 550 30,500  Descending FlightAware UK
Fri 04:07:37 AM 51.5090 1.3620 278° West 442 509 32,000  Climbing FlightAware ADS-B
Fri 04:07:52 AM 51.5286 1.2933 278° West 478 550 30,500  Descending FlightAware UK
Fri 04:08:16 AM 51.5097 1.2210 278° West 441 507 32,000  Climbing FlightAware ADS-B
Fri 04:08:34 AM 51.5296 1.1565 278° West 476 548 30,500  Descending FlightAware UK
Fri 04:08:48 AM 51.5101 1.1153 278° West 441 507 32,000  Climbing FlightAware ADS-B
Fri 04:09:10 AM 51.5296 1.0391 278° West 476 548 30,500  Descending FlightAware UK
Fri 04:09:19 AM 51.5102 1.0143 278° West 441 507 32,000  Climbing FlightAware ADS-B
Fri 04:09:34 AM 51.5292 0.9612 278° West 478 550 30,500  Descending FlightAware UK
Fri 04:09:50 AM 51.5101 0.9132 278° West 441 507 32,000 1,957 Climbing FlightAware ADS-B
Fri 04:10:20 AM 51.5099 0.8152 270° West 441 507 32,000 -1,800 Level FlightAware ADS-B
Fri 04:10:40 AM 51.5285 0.7462 270° West 478 550 30,500  Descending FlightAware UK
Fri 04:10:51 AM 51.5096 0.7160 270° West 442 509 32,000  Climbing FlightAware ADS-B
Fri 04:11:15 AM 51.5278 0.6290 270° West 472 543 30,500  Descending FlightAware UK
Fri 04:11:23 AM 51.5091 0.6106 270° West 443 510 32,000  Climbing FlightAware ADS-B
Fri 04:11:39 AM 51.5272 0.5502 270° West 474 545 30,500  Descending FlightAware UK
Fri 04:11:53 AM 51.5082 0.5101 270° West 445 512 32,000  Climbing FlightAware ADS-B
Fri 04:12:09 AM 51.5260 0.4515 270° West 478 550 30,500  Descending FlightAware UK
Fri 04:12:24 AM 51.5068 0.4101 270° West 446 513 32,000  Climbing FlightAware ADS-B
Fri 04:12:39 AM 51.5244 0.3524 270° West 478 550 30,500  Descending FlightAware UK
Fri 04:12:56 AM 51.5055 0.3046 270° West 446 513 32,000  Climbing FlightAware ADS-B
Fri 04:13:15 AM 51.5225 0.2335 270° West 478 550 30,500  Descending FlightAware UK
Fri 04:13:35 AM 51.5037 0.1768 270° West 446 513 32,000  Climbing FlightAware ADS-B
Fri 04:13:51 AM 51.5207 0.1151 270° West 478 550 30,500  Descending FlightAware UK
Fri 04:14:05 AM 51.5022 0.0771 270° West 446 513 32,000 2,045 Climbing FlightAware ADS-B
Fri 04:14:35 AM 51.5008 -0.0232 269° West 447 514 32,000 -1,731 Level FlightAware ADS-B
Fri 04:14:57 AM 51.5170 -0.1024 269° West 476 548 30,500  Descending FlightAware UK
Fri 04:15:06 AM 51.4991 -0.1263 269° West 448 516 32,000  Climbing FlightAware ADS-B
Fri 04:15:27 AM 51.5151 -0.2020 269° West 476 548 30,500  Descending FlightAware UK
Fri 04:15:37 AM 51.4974 -0.2277 269° West 448 516 32,000 2,903 Climbing FlightAware ADS-B
Fri 04:15:58 AM 51.4962 -0.2980 268° West 449 517 32,000  Level FlightAware ADS-B
Fri 04:16:07 AM 51.4967 -0.3272 272° West 448 516 32,000  Level FlightAware ADS-B
Fri 04:16:37 AM 51.5077 -0.4247 280° West 446 513 32,000  Level FlightAware ADS-B
Fri 04:17:10 AM 51.5204 -0.5320 281° West 449 517 32,000  Level FlightAware ADS-B
Fri 04:17:43 AM 51.5316 -0.6417 279° West 450 518 32,000  Level FlightAware ADS-B
Fri 04:18:14 AM 51.5405 -0.7423 278° West 452 520 32,000  Level FlightAware ADS-B
Fri 04:18:44 AM 51.5492 -0.8431 278° West 451 519 32,000  Level FlightAware ADS-B
Fri 04:19:14 AM 51.5578 -0.9430 278° West 451 519 32,000  Level FlightAware ADS-B
Fri 04:19:45 AM 51.5664 -1.0430 278° West 451 519 32,000 -1,875 Level FlightAware ADS-B
Fri 04:20:02 AM 51.5872 -1.1101 278° West 478 550 30,500  Descending FlightAware UK
Fri 04:20:15 AM 51.5751 -1.1430 278° West 451 519 32,000  Climbing FlightAware ADS-B
Fri 04:20:32 AM 51.5957 -1.2103 278° West 478 550 30,500  Descending FlightAware UK
Fri 04:20:46 AM 51.5841 -1.2441 278° West 450 518 32,000  Climbing FlightAware ADS-B
Fri 04:21:02 AM 51.6047 -1.3088 278° West 476 548 30,500  Descending FlightAware UK
Fri 04:21:16 AM 51.5944 -1.3464 278° West 451 519 32,000  Climbing FlightAware ADS-B
Fri 04:21:32 AM 51.6149 -1.4078 278° West 478 550 30,500  Descending FlightAware UK
Fri 04:21:47 AM 51.6045 -1.4466 278° West 451 519 32,000  Climbing FlightAware ADS-B
Fri 04:22:02 AM 51.6247 -1.5069 278° West 480 552 30,500  Descending FlightAware UK
Fri 04:22:17 AM 51.6141 -1.5462 278° West 450 518 32,000  Climbing FlightAware ADS-B
Fri 04:22:32 AM 51.6339 -1.6054 278° West 478 550 30,500  Descending FlightAware UK
Fri 04:22:49 AM 51.6244 -1.6529 278° West 450 518 32,000  Climbing FlightAware ADS-B
Fri 04:23:08 AM 51.6449 -1.7243 278° West 476 548 30,500  Descending FlightAware UK
Fri 04:23:20 AM 51.6337 -1.7520 278° West 450 518 32,000  Climbing FlightAware ADS-B
Fri 04:23:38 AM 51.6540 -1.8227 278° West 476 548 30,500  Descending FlightAware UK
Fri 04:23:50 AM 51.6431 -1.8522 278° West 450 518 32,000  Climbing FlightAware ADS-B
Fri 04:24:08 AM 51.6630 -1.9219 278° West 474 545 30,500  Descending FlightAware UK
Fri 04:24:25 AM 51.6538 -1.9673 278° West 451 519 32,000  Climbing FlightAware ADS-B
Fri 04:24:44 AM 51.6739 -2.0404 278° West 474 545 30,500  Descending FlightAware UK
Fri 04:24:55 AM 51.6630 -2.0692 278° West 452 520 32,000  Climbing FlightAware ADS-B
Fri 04:25:14 AM 51.6827 -2.1406 278° West 474 545 30,500  Descending FlightAware UK
Fri 04:25:26 AM 51.6723 -2.1702 278° West 452 520 32,000  Climbing FlightAware ADS-B
Fri 04:25:49 AM 51.6932 -2.2589 278° West 476 548 30,500  Descending FlightAware UK
Fri 04:25:56 AM 51.6814 -2.2704 278° West 453 521 32,000  Climbing FlightAware ADS-B
Fri 04:26:13 AM 51.7002 -2.3388 278° West 474 545 30,500  Descending FlightAware UK
Fri 04:26:26 AM 51.6903 -2.3707 278° West 452 520 32,000  Climbing FlightAware ADS-B
Fri 04:26:49 AM 51.7106 -2.4586 278° West 478 550 30,500  Descending FlightAware UK
Fri 04:26:58 AM 51.6994 -2.4750 278° West 452 520 32,000  Climbing FlightAware ADS-B
Fri 04:27:19 AM 51.7194 -2.5585 278° West 474 545 30,500  Descending FlightAware UK
Fri 04:27:28 AM 51.7084 -2.5761 278° West 451 519 32,000  Climbing FlightAware ADS-B
Fri 04:27:43 AM 51.7260 -2.6383 278° West 476 548 30,500  Descending FlightAware UK
Fri 04:27:59 AM 51.7171 -2.6779 278° West 452 520 32,000  Climbing FlightAware ADS-B
Fri 04:28:19 AM 51.7361 -2.7581 278° West 478 550 30,500  Descending FlightAware UK
Fri 04:28:31 AM 51.7264 -2.7858 278° West 451 519 32,000  Climbing FlightAware ADS-B
Fri 04:28:49 AM 51.7444 -2.8572 278° West 476 548 30,500  Descending FlightAware UK
Fri 04:29:07 AM 51.7365 -2.9056 278° West 450 518 32,000  Climbing FlightAware ADS-B
Fri 04:29:25 AM 51.7541 -2.9767 278° West 480 552 30,500 -2,500 Descending FlightAware UK
Fri 04:29:43 AM 51.7590 -3.0364 278° West 478 550 30,500 2,432 Level FlightAware UK
Fri 04:30:02 AM 51.7510 -3.0780 278° West 448 516 32,000  Climbing FlightAware ADS-B
Fri 04:30:19 AM 51.7700 -3.1537 278° West 478 550 30,500  Descending FlightAware UK
Fri 04:30:42 AM 51.7660 -3.2040 278° West 445 512 32,000  Climbing FlightAware ADS-B
Fri 04:31:01 AM 51.7881 -3.2895 278° West 472 543 30,500  Descending FlightAware UK
Fri 04:31:22 AM 51.7850 -3.3390 278° West 445 512 32,000 1,364 Climbing FlightAware ADS-B
Fri 04:32:07 AM 51.8040 -3.4890 282° West 446 513 32,000 -1,429 Level FlightAware ADS-B
Fri 04:32:25 AM 51.8241 -3.5615 282° West 476 548 30,500 -2,500 Descending FlightAware UK
Fri 04:32:43 AM 51.8313 -3.6200 281° West 478 550 30,500 4,091 Level FlightAware UK
Fri 04:32:47 AM 51.8200 -3.6160 281° West 443 510 32,000  Climbing FlightAware ADS-B
Fri 04:33:07 AM 51.8407 -3.6978 281° West 474 545 30,500  Descending FlightAware UK
Fri 04:33:32 AM 51.8380 -3.7600 281° West 441 507 32,000  Climbing FlightAware ADS-B
Fri 04:33:49 AM 51.8575 -3.8333 281° West 472 543 30,500  Descending FlightAware UK
Fri 04:34:12 AM 51.8530 -3.8810 281° West 440 506 32,000  Climbing FlightAware ADS-B
Fri 04:34:37 AM 51.8770 -3.9877 281° West 474 545 30,500  Descending FlightAware UK
Fri 04:34:52 AM 51.8700 -4.0160 281° West 443 510 32,000  Climbing FlightAware ADS-B
Fri 04:35:19 AM 51.8935 -4.1234 281° West 478 550 30,500  Descending FlightAware UK
Fri 04:35:37 AM 51.8880 -4.1640 281° West 442 509 32,000  Climbing FlightAware ADS-B
Fri 04:36:01 AM 51.9090 -4.2590 281° West 474 545 30,500  Descending FlightAware UK
Fri 04:36:12 AM 51.9000 -4.2690 281° West 440 506 32,000  Climbing FlightAware ADS-B
Fri 04:36:31 AM 51.9198 -4.3560 281° West 478 550 30,500 -2,432 Descending FlightAware UK
Fri 04:36:49 AM 51.9262 -4.4142 280° West 478 550 30,500 2,903 Level FlightAware UK
Fri 04:37:02 AM 51.9190 -4.4370 280° West 438 504 32,000  Climbing FlightAware ADS-B
Fri 04:37:19 AM 51.9367 -4.5109 280° West 474 545 30,500 -2,571 Descending FlightAware UK
Fri 04:37:37 AM 51.9434 -4.5687 281° West 474 545 30,500 3,913 Level FlightAware UK
Fri 04:37:42 AM 51.9340 -4.5650 281° West 435 501 32,000  Climbing FlightAware ADS-B
Fri 04:38:07 AM 51.9547 -4.6644 281° West 470 541 30,500  Descending FlightAware UK
Fri 04:38:27 AM 51.9500 -4.7140 281° West 435 501 32,000  Climbing FlightAware ADS-B
Fri 04:38:43 AM 51.9673 -4.7793 281° West 472 543 30,500  Descending FlightAware UK
Fri 04:39:07 AM 51.9640 -4.8410 281° West 435 501 32,000  Climbing FlightAware ADS-B
Fri 04:39:31 AM 51.9835 -4.9331 281° West 470 541 30,500  Descending FlightAware UK
Fri 04:39:47 AM 51.9770 -4.9660 281° West 434 499 32,000  Climbing FlightAware ADS-B
Fri 04:40:12 AM 51.9967 -5.0671 281° West 472 543 30,500  Descending FlightAware UK
Fri 04:40:32 AM 51.9910 -5.1150 281° West 434 499 32,000  Climbing FlightAware ADS-B
Fri 04:40:54 AM 52.0095 -5.2015 281° West 470 541 30,500  Descending FlightAware UK
Fri 04:41:12 AM 52.0030 -5.2430 281° West 432 497 32,000  Climbing FlightAware ADS-B
Fri 04:41:30 AM 52.0156 -5.3171 281° West 472 543 30,500 -2,500 Descending FlightAware UK
Fri 04:41:48 AM 52.0137 -5.3767 267° West 472 543 30,500 4,091 Level FlightAware UK
Fri 04:41:52 AM 52.0030 -5.3700 267° West 446 513 32,000  Climbing FlightAware ADS-B
Fri 04:42:18 AM 52.0153 -5.4738 267° West 472 543 30,500  Descending FlightAware UK
Fri 04:42:37 AM 52.0090 -5.5170 267° West 431 496 32,000  Climbing FlightAware ADS-B
Fri 04:42:54 AM 52.0232 -5.5889 267° West 472 543 30,500 -2,571 Descending FlightAware UK
Fri 04:43:12 AM 52.0262 -5.6468 275° West 470 541 30,500 3,913 Level FlightAware UK
Fri 04:43:17 AM 52.0160 -5.6450 275° West 432 497 32,000  Climbing FlightAware ADS-B
Fri 04:43:42 AM 52.0293 -5.7439 275° West 468 539 30,500  Descending FlightAware UK
Fri 04:43:57 AM 52.0200 -5.7760 275° West 434 499 32,000  Climbing FlightAware ADS-B
Fri 04:44:12 AM 52.0320 -5.8411 275° West 468 539 30,500 -2,727 Descending FlightAware UK
Fri 04:44:30 AM 52.0334 -5.8993 272° West 470 541 30,500 3,000 Level FlightAware UK
Fri 04:44:42 AM 52.0240 -5.9230 272° West 435 501 32,000  Climbing FlightAware ADS-B
Fri 04:45:00 AM 52.0359 -5.9967 272° West 468 539 30,500 -2,500 Descending FlightAware UK
Fri 04:45:18 AM 52.0373 -6.0545 272° West 466 536 30,500 4,091 Level FlightAware UK
Fri 04:45:22 AM 52.0270 -6.0550 272° West 435 501 32,000  Climbing FlightAware ADS-B
Fri 04:45:42 AM 52.0393 -6.1324 272° West 464 534 30,500 -2,368 Descending FlightAware UK
Fri 04:46:00 AM 52.0409 -6.1909 272° West 466 536 30,500 3,600 Level FlightAware UK
Fri 04:46:07 AM 52.0310 -6.2000 272° West 436 502 32,000  Climbing FlightAware ADS-B
Fri 04:46:24 AM 52.0430 -6.2688 272° West 466 536 30,500 -2,571 Descending FlightAware UK
Fri 04:46:42 AM 52.0445 -6.3275 272° West 466 536 30,500 3,913 Level FlightAware UK
Fri 04:46:47 AM 52.0340 -6.3310 272° West 437 503 32,000  Climbing FlightAware ADS-B
Fri 04:47:06 AM 52.0466 -6.4057 272° West 466 536 30,500 -2,432 Descending FlightAware UK
Fri 04:47:24 AM 52.0481 -6.4645 272° West 466 536 30,500 3,462 Level FlightAware UK
Fri 04:47:32 AM 52.0380 -6.4780 272° West 438 504 32,000  Climbing FlightAware ADS-B
Fri 04:47:48 AM 52.0502 -6.5430 272° West 466 536 30,500 -2,647 Descending FlightAware UK
Fri 04:48:06 AM 52.0517 -6.6020 272° West 466 536 30,500 3,750 Level FlightAware UK
Fri 04:48:12 AM 52.0420 -6.6120 272° West 438 504 32,000  Climbing FlightAware ADS-B
Fri 04:48:30 AM 52.0538 -6.6806 272° West 468 539 30,500  Descending FlightAware UK
Fri 04:48:47 AM 52.0450 -6.7200 273° West 439 505 32,000  Climbing FlightAware ADS-B
Fri 04:48:48 AM 52.0556 -6.7396 273° West 466 536 30,500 -4,737 Descending FlightAware UK
Fri 04:49:06 AM 52.0575 -6.7986 273° West 464 534 30,500  Level FlightAware UK
Fri 04:49:24 AM 52.0592 -6.8577 273° West 468 539 30,500 2,903 Level FlightAware UK
Fri 04:49:37 AM 52.0490 -6.8740 273° West 440 506 32,000  Climbing FlightAware ADS-B
Fri 04:49:54 AM 52.0619 -6.9562 273° West 466 536 30,500 -2,571 Descending FlightAware UK
Fri 04:50:12 AM 52.0636 -7.0153 273° West 466 536 30,500  Level FlightAware UK
Fri 04:50:30 AM 52.0649 -7.0745 272° West 468 539 30,500 3,000 Level FlightAware UK
Fri 04:50:42 AM 52.0540 -7.0870 272° West 441 507 32,000  Climbing FlightAware ADS-B
Fri 04:51:00 AM 52.0674 -7.1728 272° West 466 536 30,500 -2,500 Descending FlightAware UK
Fri 04:51:18 AM 52.0687 -7.2321 272° West 466 536 30,500  Level FlightAware UK
Fri 04:51:36 AM 52.0701 -7.2915 272° West 466 536 30,500 2,647 Level FlightAware UK
Fri 04:51:52 AM 52.0600 -7.3170 273° West 442 509 32,000  Climbing FlightAware ADS-B
Fri 04:51:54 AM 52.0719 -7.3510 273° West 466 536 30,500 -4,500 Descending FlightAware UK
Fri 04:52:12 AM 52.0735 -7.4105 273° West 466 536 30,500  Level FlightAware UK
Fri 04:52:30 AM 52.0750 -7.4700 272° West 470 541 30,500  Level FlightAware UK
Fri 04:52:48 AM 52.0763 -7.5295 272° West 468 539 30,500  Level FlightAware UK
Fri 04:53:06 AM 52.0776 -7.5891 272° West 468 539 30,500 2,647 Level FlightAware UK
Fri 04:53:22 AM 52.0660 -7.6140 272° West 443 510 32,000  Climbing FlightAware ADS-B
Fri 04:53:42 AM 52.0802 -7.7083 272° West 466 536 30,500 -2,368 Descending FlightAware UK
Fri 04:54:00 AM 52.0812 -7.7679 272° West 468 539 30,500 3,000 Level FlightAware UK
Fri 04:54:12 AM 52.0690 -7.7820 272° West 444 511 32,000  Climbing FlightAware ADS-B
Fri 04:54:30 AM 52.0830 -7.8674 272° West 466 536 30,500 -2,500 Descending FlightAware UK
Fri 04:54:48 AM 52.0831 -7.9269 270° West 466 536 30,500 4,091 Level FlightAware UK
Fri 04:54:52 AM 52.0720 -7.9180 270° West 445 512 32,000  Climbing FlightAware ADS-B
Fri 04:55:12 AM 52.0844 -8.0065 270° West 468 539 30,500 -2,368 Descending FlightAware UK
Fri 04:55:30 AM 52.0855 -8.0663 272° West 470 541 30,500 3,000 Level FlightAware UK
Fri 04:55:42 AM 52.0750 -8.0840 272° West 445 512 32,000  Climbing FlightAware ADS-B
Fri 04:56:00 AM 52.0873 -8.1660 272° West 470 541 30,500 -2,500 Descending FlightAware UK
Fri 04:56:18 AM 52.0883 -8.2260 272° West 470 541 30,500  Level FlightAware UK
Fri 04:56:36 AM 52.0892 -8.2858 271° West 468 539 30,500 3,103 Level FlightAware UK
Fri 04:56:47 AM 52.0770 -8.2900 271° West 444 511 32,000  Climbing FlightAware ADS-B
Fri 04:57:06 AM 52.0907 -8.3849 271° West 466 536 30,500 -2,432 Descending FlightAware UK
Fri 04:57:24 AM 52.0916 -8.4447 271° West 466 536 30,500 3,462 Level FlightAware UK
Fri 04:57:32 AM 52.0790 -8.4520 271° West 444 511 32,000  Climbing FlightAware ADS-B
Fri 04:57:48 AM 52.0926 -8.5245 271° West 468 539 30,500 -2,647 Descending FlightAware UK
Fri 04:58:06 AM 52.0934 -8.5844 271° West 468 539 30,500 3,750 Level FlightAware UK
Fri 04:58:12 AM 52.0810 -8.5940 271° West 445 512 32,000  Climbing FlightAware ADS-B
Fri 04:58:30 AM 52.0944 -8.6643 271° West 470 541 30,500  Descending FlightAware UK
Fri 04:58:47 AM 52.0820 -8.7150 271° West 445 512 32,000  Climbing FlightAware ADS-B
Fri 04:58:48 AM 52.0953 -8.7242 271° West 470 541 30,500 -4,737 Descending FlightAware UK
Fri 04:59:06 AM 52.0959 -8.7841 271° West 464 534 30,500  Level FlightAware UK
Fri 04:59:24 AM 52.0966 -8.8441 271° West 466 536 30,500  Level FlightAware UK
Fri 04:59:42 AM 52.0972 -8.9043 271° West 466 536 30,500 3,913 Level FlightAware UK
Fri 04:59:47 AM 52.0840 -8.9100 271° West 446 513 32,000  Climbing FlightAware ADS-B
Fri 05:00:06 AM 52.0981 -8.9846 271° West 470 541 30,500  Descending FlightAware UK
Fri 05:00:37 AM 52.0850 -9.0750 271° West 446 513 32,000 1,268 Climbing FlightAware ADS-B
Fri 05:01:17 AM 52.0860 -9.2080 271° West 446 513 32,000  Level FlightAware ADS-B
Fri 05:01:57 AM 52.0870 -9.3460 271° West 445 512 32,000  Level FlightAware ADS-B
Fri 05:02:42 AM 52.0880 -9.4950 271° West 444 511 32,000  Level FlightAware ADS-B
Fri 05:03:22 AM 52.0880 -9.6280 270° West 444 511 32,000  Level FlightAware ADS-B
Fri 05:04:02 AM 52.0880 -9.7610 270° West 444 511 32,000  Level FlightAware ADS-B
Fri 05:05:17 AM 52.0880 -10.0030 270° West 443 510 32,000  Level FlightAware ADS-B
Fri 05:05:57 AM 52.0880 -10.1380 270° West 441 507 32,000  Level FlightAware ADS-B
Fri 05:07:32 AM 52.0870 -10.4420 270° West 436 502 32,000  Level FlightAware ADS-B
Fri 05:08:32 AM 52.0850 -10.6380 269° West 433 498 32,000  Level FlightAware ADS-B
Fri 05:09:07 AM 52.0840 -10.7380 269° West 433 498 32,000  Level FlightAware ADS-B
Fri 05:09:52 AM 52.0830 -10.9010 269° West 432 497 32,000  Level FlightAware ADS-B
Fri 05:10:37 AM 52.0830 -11.0450 270° West 431 496 32,000  Level FlightAware ADS-B
Fri 05:11:12 AM 52.0810 -11.1530 268° West 431 496 32,000  Level FlightAware ADS-B
Fri 05:11:57 AM 52.0790 -11.3000 269° West 431 496 32,000  Level FlightAware ADS-B
Fri 05:12:42 AM 52.0770 -11.4540 269° West 431 496 32,000  Level FlightAware ADS-B
Fri 05:13:27 AM 52.0750 -11.5890 269° West 431 496 32,000  Level FlightAware ADS-B
Fri 05:14:02 AM 52.0740 -11.6990 269° West 430 495 32,000  Level FlightAware ADS-B
Fri 05:14:47 AM 52.0720 -11.8340 269° West 430 495 32,000  Level FlightAware ADS-B
Fri 05:15:27 AM 52.0710 -11.9440 269° West 430 495 32,000  Level FlightAware ADS-B
Fri 05:16:07 AM 52.0700 -12.0540 269° West 430 495 32,000  Level FlightAware ADS-B
Fri 05:16:57 AM 52.0680 -12.1920 269° West 430 495 32,000  Level FlightAware ADS-B
Fri 05:17:37 AM 52.0670 -12.3020 269° West 430 495 32,000  Level FlightAware ADS-B
Fri 05:18:17 AM 52.0660 -12.4120 269° West 430 495 32,000  Level FlightAware ADS-B
Fri 05:18:57 AM 52.0650 -12.5220 269° West 430 495 32,000  Level FlightAware ADS-B
Fri 05:19:37 AM 52.0640 -12.6320 269° West 430 495 32,000  Level FlightAware ADS-B
Fri 05:20:27 AM 52.0620 -12.7690 269° West 430 495 32,000  Level FlightAware ADS-B
Fri 05:21:07 AM 52.0610 -12.8790 269° West 430 495 32,000  Level FlightAware ADS-B
Fri 05:21:47 AM 52.0600 -12.9890 269° West 430 495 32,000  Level FlightAware ADS-B
Fri 05:22:27 AM 52.0590 -13.0990 269° West 430 495 32,000  Level FlightAware ADS-B
Fri 05:23:07 AM 52.0570 -13.2090 268° West 430 495 32,000  Level FlightAware ADS-B
Fri 05:23:57 AM 52.0560 -13.3470 269° West 430 495 32,000 53 Level FlightAware ADS-B
Fri 05:26:00 AM 52.0910 -13.6968 279° West  Level Estimated
Fri 05:27:00 AM 52.1077 -13.8676 279° West  Level Estimated
Fri 05:28:00 AM 52.1241 -14.0386 279° West  Level Estimated
Fri 05:29:00 AM 52.1404 -14.2097 279° West  Level Estimated
Fri 05:30:00 AM 52.1563 -14.3808 279° West  Level Estimated
Fri 05:31:00 AM 52.1720 -14.5522 279° West  Level Estimated
Fri 05:32:00 AM 52.1875 -14.7236 278° West  Level Estimated
Fri 05:33:00 AM 52.2027 -14.8952 278° West  Level Estimated
Fri 05:34:00 AM 52.2176 -15.0668 278° West  Level Estimated
Fri 05:35:00 AM 52.2323 -15.2386 278° West  Level Estimated
Fri 05:36:00 AM 52.2468 -15.4106 278° West  Level Estimated
Fri 05:37:00 AM 52.2610 -15.5826 278° West  Level Estimated
Fri 05:38:00 AM 52.2750 -15.7547 278° West  Level Estimated
Fri 05:39:00 AM 52.2887 -15.9269 277° West  Level Estimated
Fri 05:40:00 AM 52.3022 -16.0993 277° West  Level Estimated
Fri 05:41:00 AM 52.3154 -16.2717 277° West  Level Estimated
Fri 05:42:00 AM 52.3283 -16.4443 277° West  Level Estimated
Fri 05:43:00 AM 52.3410 -16.6169 277° West  Level Estimated
Fri 05:44:00 AM 52.3535 -16.7896 277° West  Level Estimated
Fri 05:45:00 AM 52.3657 -16.9625 277° West  Level Estimated
Fri 05:46:00 AM 52.3776 -17.1354 277° West  Level Estimated
Fri 05:47:00 AM 52.3893 -17.3085 276° West  Level Estimated
Fri 05:48:00 AM 52.4008 -17.4816 276° West  Level Estimated
Fri 05:49:00 AM 52.4136 -17.6691 276° West  Level Estimated
Fri 05:50:00 AM 52.4261 -17.8567 276° West  Level Estimated
Fri 05:51:00 AM 52.4383 -18.0444 276° West  Level Estimated
Fri 05:52:00 AM 52.4502 -18.2322 276° West  Level Estimated
Fri 05:53:00 AM 52.4618 -18.4201 276° West  Level Estimated
Fri 05:54:00 AM 52.4731 -18.6081 276° West  Level Estimated
Fri 05:55:00 AM 52.4841 -18.7962 276° West  Level Estimated
Fri 05:56:00 AM 52.4949 -18.9844 275° West  Level Estimated
Fri 05:57:00 AM 52.5053 -19.1727 275° West  Level Estimated
Fri 05:58:00 AM 52.5154 -19.3611 275° West  Level Estimated
Fri 05:59:00 AM 52.5252 -19.5495 275° West  Level Estimated
Fri 06:00:00 AM 52.5348 -19.7381 275° West  Level Estimated
Fri 06:01:00 AM 52.5440 -19.9267 275° West  Level Estimated
Fri 06:01:00 AM 52.0000 -20.0000 274° West 402 463 34,000  Level ETMS Enhanced Traffic Management System
Fri 06:02:00 AM 52.5529 -20.1154 275° West  Level Estimated
Fri 06:03:00 AM 52.5615 -20.3042 274° West  Level Estimated
Fri 06:04:00 AM 52.5698 -20.4930 274° West  Level Estimated
Fri 06:05:00 AM 52.5779 -20.6819 274° West  Level Estimated
Fri 06:06:00 AM 52.5856 -20.8709 274° West  Level Estimated
Fri 06:07:00 AM 52.0579 -21.6334 273° West 402 463 34,000  Level FlightAware Transoceanic
Fri 06:08:00 AM 52.0630 -21.8152 273° West 402 463 34,000  Level FlightAware Transoceanic
Fri 06:09:00 AM 52.0678 -21.9970 272° West 402 463 34,000  Level FlightAware Transoceanic
Fri 06:10:00 AM 52.0722 -22.1788 272° West 402 463 34,000  Level FlightAware Transoceanic
Fri 06:11:00 AM 52.0765 -22.3606 272° West 402 463 34,000  Level FlightAware Transoceanic
Fri 06:12:00 AM 52.0804 -22.5425 272° West 402 463 34,000  Level FlightAware Transoceanic
Fri 06:13:00 AM 52.0840 -22.7244 272° West 402 463 34,000  Level FlightAware Transoceanic
Fri 06:14:00 AM 52.0874 -22.9064 272° West 402 463 34,000  Level FlightAware Transoceanic
Fri 06:15:00 AM 52.0905 -23.0883 272° West 402 463 34,000  Level FlightAware Transoceanic
Fri 06:16:00 AM 52.0933 -23.2703 271° West 402 463 34,000  Level FlightAware Transoceanic
Fri 06:17:00 AM 52.0958 -23.4523 271° West 402 463 34,000  Level FlightAware Transoceanic
Fri 06:18:00 AM 52.0980 -23.6344 271° West 402 463 34,000  Level FlightAware Transoceanic
Fri 06:19:00 AM 52.1000 -23.8164 271° West 402 463 34,000  Level FlightAware Transoceanic
Fri 06:20:00 AM 52.1017 -23.9985 271° West 402 463 34,000  Level FlightAware Transoceanic
Fri 06:21:00 AM 52.1031 -24.1806 271° West 402 463 34,000  Level FlightAware Transoceanic
Fri 06:22:00 AM 52.1042 -24.3626 271° West 402 463 34,000  Level FlightAware Transoceanic
Fri 06:23:00 AM 52.1050 -24.5447 270° West 402 463 34,000  Level FlightAware Transoceanic
Fri 06:24:00 AM 52.1056 -24.7268 270° West 402 463 34,000  Level FlightAware Transoceanic
Fri 06:25:00 AM 52.1059 -24.9090 270° West 402 463 34,000  Level FlightAware Transoceanic
Fri 06:26:00 AM 52.1059 -25.0910 270° West 402 463 34,000  Level FlightAware Transoceanic
Fri 06:27:00 AM 52.1056 -25.2732 270° West 402 463 34,000  Level FlightAware Transoceanic
Fri 06:28:00 AM 52.1050 -25.4553 270° West 402 463 34,000  Level FlightAware Transoceanic
Fri 06:29:00 AM 52.1042 -25.6374 269° West 402 463 34,000  Level FlightAware Transoceanic
Fri 06:30:00 AM 52.1031 -25.8194 269° West 402 463 34,000  Level FlightAware Transoceanic
Fri 06:31:00 AM 52.1017 -26.0015 269° West 402 463 34,000  Level FlightAware Transoceanic
Fri 06:32:00 AM 52.1000 -26.1836 269° West 402 463 34,000  Level FlightAware Transoceanic
Fri 06:33:00 AM 52.0980 -26.3656 269° West 402 463 34,000  Level FlightAware Transoceanic
Fri 06:34:00 AM 52.0958 -26.5477 269° West 402 463 34,000  Level FlightAware Transoceanic
Fri 06:35:00 AM 52.0933 -26.7297 269° West 402 463 34,000  Level FlightAware Transoceanic
Fri 06:36:00 AM 52.0905 -26.9117 268° West 402 463 34,000  Level FlightAware Transoceanic
Fri 06:37:00 AM 52.0874 -27.0936 268° West 402 463 34,000  Level FlightAware Transoceanic
Fri 06:38:00 AM 52.0840 -27.2756 268° West 402 463 34,000  Level FlightAware Transoceanic
Fri 06:39:00 AM 52.0804 -27.4575 268° West 402 463 34,000  Level FlightAware Transoceanic
Fri 06:40:00 AM 52.0765 -27.6394 268° West 402 463 34,000  Level FlightAware Transoceanic
Fri 06:41:00 AM 52.0722 -27.8212 268° West 402 463 34,000  Level FlightAware Transoceanic
Fri 06:42:00 AM 52.0678 -28.0030 268° West 402 463 34,000  Level FlightAware Transoceanic
Fri 06:43:00 AM 52.0630 -28.1848 267° West 402 463 34,000  Level FlightAware Transoceanic
Fri 06:44:00 AM 52.0579 -28.3666 267° West 402 463 34,000  Level FlightAware Transoceanic
Fri 06:45:00 AM 52.0526 -28.5482 267° West 402 463 34,000  Level FlightAware Transoceanic
Fri 06:46:00 AM 52.0470 -28.7299 267° West 402 463 34,000  Level FlightAware Transoceanic
Fri 06:47:00 AM 52.0411 -28.9115 267° West 402 463 34,000  Level FlightAware Transoceanic
Fri 06:48:00 AM 52.0350 -29.0930 267° West 402 463 34,000  Level FlightAware Transoceanic
Fri 06:49:00 AM 52.0285 -29.2745 267° West 402 463 34,000  Level FlightAware Transoceanic
Fri 06:50:00 AM 52.0218 -29.4560 266° West 402 463 34,000  Level FlightAware Transoceanic
Fri 06:51:00 AM 52.0148 -29.6374 266° West 402 463 34,000  Level FlightAware Transoceanic
Fri 06:52:00 AM 52.0075 -29.8187 266° West 402 463 34,000  Level FlightAware Transoceanic
Fri 06:53:00 AM 51.9998 -30.0053 266° West  Level FlightAware Approximate
Fri 06:54:00 AM 51.9994 -30.0105 265° West  Level FlightAware Approximate
Fri 06:55:00 AM 51.9888 -30.1966 265° West  Level FlightAware Approximate
Fri 06:56:00 AM 51.9780 -30.3827 265° West  Level FlightAware Approximate
Fri 06:56:00 AM 52.0000 -30.0000 265° West 384 442 34,000  Level ETMS Enhanced Traffic Management System
Fri 06:57:00 AM 51.9668 -30.5686 265° West  Level FlightAware Approximate
Fri 06:58:00 AM 51.9554 -30.7545 264° West  Level FlightAware Approximate
Fri 06:59:00 AM 51.9436 -30.9402 264° West  Level FlightAware Approximate
Fri 07:00:00 AM 51.9316 -31.1259 264° West  Level FlightAware Approximate
Fri 07:01:00 AM 51.9193 -31.3114 264° West  Level FlightAware Approximate
Fri 07:02:00 AM 51.9147 -31.3792 264° West 384 442 34,000  Level FlightAware Transoceanic
Fri 07:03:00 AM 51.9029 -31.5513 264° West 384 442 34,000  Level FlightAware Transoceanic
Fri 07:04:00 AM 51.8909 -31.7232 263° West 384 442 34,000  Level FlightAware Transoceanic
Fri 07:05:00 AM 51.8786 -31.8950 263° West 384 442 34,000  Level FlightAware Transoceanic
Fri 07:06:00 AM 51.8661 -32.0667 263° West 384 442 34,000  Level FlightAware Transoceanic
Fri 07:07:00 AM 51.8533 -32.2384 263° West 384 442 34,000  Level FlightAware Transoceanic
Fri 07:08:00 AM 51.8402 -32.4100 263° West 384 442 34,000  Level FlightAware Transoceanic
Fri 07:09:00 AM 51.8269 -32.5814 263° West 384 442 34,000  Level FlightAware Transoceanic
Fri 07:10:00 AM 51.8134 -32.7527 263° West 384 442 34,000  Level FlightAware Transoceanic
Fri 07:11:00 AM 51.7996 -32.9240 263° West 384 442 34,000  Level FlightAware Transoceanic
Fri 07:12:00 AM 51.7856 -33.0951 262° West 384 442 34,000  Level FlightAware Transoceanic
Fri 07:13:00 AM 51.7713 -33.2661 262° West 384 442 34,000  Level FlightAware Transoceanic
Fri 07:14:00 AM 51.7567 -33.4370 262° West 384 442 34,000  Level FlightAware Transoceanic
Fri 07:15:00 AM 51.7420 -33.6079 262° West 384 442 34,000  Level FlightAware Transoceanic
Fri 07:16:00 AM 51.7269 -33.7785 262° West 384 442 34,000  Level FlightAware Transoceanic
Fri 07:17:00 AM 51.7117 -33.9491 262° West 384 442 34,000  Level FlightAware Transoceanic
Fri 07:18:00 AM 51.6961 -34.1196 262° West 384 442 34,000  Level FlightAware Transoceanic
Fri 07:19:00 AM 51.6804 -34.2899 261° West 384 442 34,000  Level FlightAware Transoceanic
Fri 07:20:00 AM 51.6643 -34.4602 261° West 384 442 34,000  Level FlightAware Transoceanic
Fri 07:21:00 AM 51.6481 -34.6303 261° West 384 442 34,000  Level FlightAware Transoceanic
Fri 07:22:00 AM 51.6316 -34.8003 261° West 384 442 34,000  Level FlightAware Transoceanic
Fri 07:23:00 AM 51.6148 -34.9701 261° West 384 442 34,000  Level FlightAware Transoceanic
Fri 07:24:00 AM 51.5978 -35.1399 261° West 384 442 34,000  Level FlightAware Transoceanic
Fri 07:25:00 AM 51.5806 -35.3094 261° West 384 442 34,000  Level FlightAware Transoceanic
Fri 07:26:00 AM 51.5631 -35.4789 261° West 384 442 34,000  Level FlightAware Transoceanic
Fri 07:27:00 AM 51.5454 -35.6483 260° West 384 442 34,000  Level FlightAware Transoceanic
Fri 07:28:00 AM 51.5274 -35.8175 260° West 384 442 34,000  Level FlightAware Transoceanic
Fri 07:29:00 AM 51.5092 -35.9865 260° West 384 442 34,000  Level FlightAware Transoceanic
Fri 07:30:00 AM 51.4907 -36.1555 260° West 384 442 34,000  Level FlightAware Transoceanic
Fri 07:31:00 AM 51.4720 -36.3243 260° West 384 442 34,000  Level FlightAware Transoceanic
Fri 07:32:00 AM 51.4531 -36.4930 260° West 384 442 34,000  Level FlightAware Transoceanic
Fri 07:33:00 AM 51.4339 -36.6615 260° West 384 442 34,000  Level FlightAware Transoceanic
Fri 07:34:00 AM 51.4145 -36.8298 259° West 384 442 34,000  Level FlightAware Transoceanic
Fri 07:35:00 AM 51.3948 -36.9981 259° West 384 442 34,000  Level FlightAware Transoceanic
Fri 07:36:00 AM 51.3749 -37.1662 259° West 384 442 34,000  Level FlightAware Transoceanic
Fri 07:37:00 AM 51.3547 -37.3341 259° West 384 442 34,000  Level FlightAware Transoceanic
Fri 07:38:00 AM 51.3344 -37.5019 259° West 384 442 34,000  Level FlightAware Transoceanic
Fri 07:39:00 AM 51.3137 -37.6696 259° West 384 442 34,000  Level FlightAware Transoceanic
Fri 07:40:00 AM 51.2929 -37.8371 259° West 384 442 34,000  Level FlightAware Transoceanic
Fri 07:41:00 AM 51.2718 -38.0044 259° West 384 442 34,000  Level FlightAware Transoceanic
Fri 07:42:00 AM 51.2504 -38.1716 258° West 384 442 34,000  Level FlightAware Transoceanic
Fri 07:43:00 AM 51.2288 -38.3386 258° West 384 442 34,000  Level FlightAware Transoceanic
Fri 07:44:00 AM 51.2070 -38.5055 258° West 384 442 34,000  Level FlightAware Transoceanic
Fri 07:45:00 AM 51.1849 -38.6722 258° West 384 442 34,000  Level FlightAware Transoceanic
Fri 07:46:00 AM 51.1627 -38.8387 258° West 384 442 34,000  Level FlightAware Transoceanic
Fri 07:47:00 AM 51.1401 -39.0051 258° West 384 442 34,000  Level FlightAware Transoceanic
Fri 07:48:00 AM 51.1174 -39.1714 258° West 384 442 34,000  Level FlightAware Transoceanic
Fri 07:49:00 AM 51.0943 -39.3374 257° West 384 442 34,000  Level FlightAware Transoceanic
Fri 07:50:00 AM 51.0711 -39.5033 257° West 384 442 34,000  Level FlightAware Transoceanic
Fri 07:51:00 AM 51.0476 -39.6690 257° West 384 442 34,000 2,000 Level FlightAware Transoceanic
Fri 07:51:00 AM 51.0000 -40.0000 249° West 428 493 36,000  Climbing ETMS Enhanced Traffic Management System
Fri 07:52:00 AM 51.0239 -39.8346 257° West 384 442 34,000  Descending FlightAware Transoceanic
Fri 07:53:00 AM 50.9981 -40.0129 257° West  Level FlightAware Approximate
Fri 07:54:00 AM 50.9939 -40.0246 248° West  Level FlightAware Approximate
Fri 07:55:00 AM 50.9514 -40.1944 248° West  Level FlightAware Approximate
Fri 07:56:00 AM 50.9086 -40.3640 248° West  Level FlightAware Approximate
Fri 07:57:00 AM 50.6512 -41.4037 248° West 428 493 36,000  Level FlightAware Transoceanic
Fri 07:58:00 AM 50.6064 -41.5777 248° West 428 493 36,000  Level FlightAware Transoceanic
Fri 07:59:00 AM 50.5614 -41.7513 248° West 428 493 36,000  Level FlightAware Transoceanic
Fri 08:00:00 AM 50.5161 -41.9247 248° West 428 493 36,000  Level FlightAware Transoceanic
Fri 08:01:00 AM 50.4705 -42.0976 247° West 428 493 36,000  Level FlightAware Transoceanic
Fri 08:02:00 AM 50.4247 -42.2703 247° West 428 493 36,000  Level FlightAware Transoceanic
Fri 08:03:00 AM 50.3787 -42.4426 247° West 428 493 36,000  Level FlightAware Transoceanic
Fri 08:04:00 AM 50.3324 -42.6146 247° West 428 493 36,000  Level FlightAware Transoceanic
Fri 08:05:00 AM 50.2858 -42.7862 247° West 428 493 36,000  Level FlightAware Transoceanic
Fri 08:06:00 AM 50.2390 -42.9575 247° West 428 493 36,000  Level FlightAware Transoceanic
Fri 08:07:00 AM 50.1919 -43.1285 247° West 428 493 36,000  Level FlightAware Transoceanic
Fri 08:08:00 AM 50.1446 -43.2991 247° West 428 493 36,000  Level FlightAware Transoceanic
Fri 08:09:00 AM 50.0970 -43.4694 246° West 428 493 36,000  Level FlightAware Transoceanic
Fri 08:10:00 AM 50.0492 -43.6394 246° West 428 493 36,000  Level FlightAware Transoceanic
Fri 08:11:00 AM 50.0011 -43.8090 246° West 428 493 36,000  Level FlightAware Transoceanic
Fri 08:12:00 AM 49.9528 -43.9783 246° West 428 493 36,000  Level FlightAware Transoceanic
Fri 08:13:00 AM 49.9042 -44.1472 246° West 428 493 36,000  Level FlightAware Transoceanic
Fri 08:14:00 AM 49.8554 -44.3158 246° West 428 493 36,000  Level FlightAware Transoceanic
Fri 08:15:00 AM 49.8064 -44.4841 246° West 428 493 36,000  Level FlightAware Transoceanic
Fri 08:16:00 AM 49.7571 -44.6520 245° Southwest 428 493 36,000  Level FlightAware Transoceanic
Fri 08:17:00 AM 49.7075 -44.8196 245° Southwest 428 493 36,000  Level FlightAware Transoceanic
Fri 08:18:00 AM 49.6578 -44.9868 245° Southwest 428 493 36,000  Level FlightAware Transoceanic
Fri 08:19:00 AM 49.6077 -45.1537 245° Southwest 428 493 36,000  Level FlightAware Transoceanic
Fri 08:20:00 AM 49.5575 -45.3202 245° Southwest 428 493 36,000  Level FlightAware Transoceanic
Fri 08:21:00 AM 49.5070 -45.4864 245° Southwest 428 493 36,000  Level FlightAware Transoceanic
Fri 08:22:00 AM 49.4563 -45.6523 245° Southwest 428 493 36,000  Level FlightAware Transoceanic
Fri 08:23:00 AM 49.4053 -45.8178 245° Southwest 428 493 36,000  Level FlightAware Transoceanic
Fri 08:24:00 AM 49.3541 -45.9830 244° Southwest 428 493 36,000  Level FlightAware Transoceanic
Fri 08:25:00 AM 49.3026 -46.1478 244° Southwest 428 493 36,000  Level FlightAware Transoceanic
Fri 08:26:00 AM 49.2510 -46.3123 244° Southwest 428 493 36,000  Level FlightAware Transoceanic
Fri 08:27:00 AM 49.1991 -46.4764 244° Southwest 428 493 36,000  Level FlightAware Transoceanic
Fri 08:28:00 AM 49.1469 -46.6402 244° Southwest 428 493 36,000  Level FlightAware Transoceanic
Fri 08:29:00 AM 49.0946 -46.8037 244° Southwest 428 493 36,000  Level FlightAware Transoceanic
Fri 08:30:00 AM 49.0420 -46.9668 244° Southwest 428 493 36,000  Level FlightAware Transoceanic
Fri 08:31:00 AM 48.9891 -47.1295 244° Southwest 428 493 36,000  Level FlightAware Transoceanic
Fri 08:32:00 AM 48.9361 -47.2919 243° Southwest 428 493 36,000  Level FlightAware Transoceanic
Fri 08:33:00 AM 48.8828 -47.4540 243° Southwest 428 493 36,000  Level FlightAware Transoceanic
Fri 08:34:00 AM 48.8293 -47.6157 243° Southwest 428 493 36,000  Level FlightAware Transoceanic
Fri 08:35:00 AM 48.7755 -47.7771 243° Southwest 428 493 36,000  Level FlightAware Transoceanic
Fri 08:36:00 AM 48.7216 -47.9381 243° Southwest 428 493 36,000  Level FlightAware Transoceanic
Fri 08:37:00 AM 48.6674 -48.0988 243° Southwest 428 493 36,000  Level FlightAware Transoceanic
Fri 08:38:00 AM 48.6130 -48.2591 243° Southwest 428 493 36,000  Level FlightAware Transoceanic
Fri 08:39:00 AM 48.5583 -48.4191 243° Southwest 428 493 36,000  Level FlightAware Transoceanic
Fri 08:40:00 AM 48.5035 -48.5788 243° Southwest 428 493 36,000  Level FlightAware Transoceanic
Fri 08:41:00 AM 48.4484 -48.7381 242° Southwest 428 493 36,000  Level FlightAware Transoceanic
Fri 08:42:00 AM 48.3931 -48.8970 242° Southwest 428 493 36,000  Level FlightAware Transoceanic
Fri 08:43:00 AM 48.3376 -49.0556 242° Southwest 428 493 36,000  Level FlightAware Transoceanic
Fri 08:44:00 AM 48.2819 -49.2139 242° Southwest 428 493 36,000  Level FlightAware Transoceanic
Fri 08:45:00 AM 48.2259 -49.3718 242° Southwest 428 493 36,000  Level FlightAware Transoceanic
Fri 08:46:00 AM 48.1698 -49.5294 242° Southwest 428 493 36,000  Level FlightAware Transoceanic
Fri 08:47:00 AM 48.1134 -49.6866 242° Southwest 428 493 36,000  Level FlightAware Transoceanic
Fri 08:48:00 AM 48.0568 -49.8435 242° Southwest 428 493 36,000 433 Level FlightAware Transoceanic
Fri 08:49:00 AM 47.9971 -49.9906 239° Southwest  Level FlightAware Approximate
Fri 08:50:00 AM 48.0000 -49.9860 270° West  Level FlightAware Approximate
Fri 08:51:00 AM 47.9727 -50.1526 255° West  Level FlightAware Approximate
Fri 08:51:37 AM 48.0490 -49.9100 255° West 396 456 38,000  Level FlightAware ADS-B
Fri 08:52:00 AM 47.9427 -50.3185 255° West  Level FlightAware Approximate
Fri 08:52:00 AM 48.0000 -50.0000 255° West 415 478 38,000  Level ETMS Enhanced Traffic Management System
Fri 08:52:22 AM 48.0140 -50.0140 243° Southwest 390 449 38,000  Level FlightAware ADS-B
Fri 08:52:57 AM 47.9940 -50.1090 253° West 377 434 38,000  Level FlightAware ADS-B
Fri 08:53:42 AM 47.9720 -50.2220 254° West 383 441 38,000  Level FlightAware ADS-B
Fri 08:54:27 AM 47.9480 -50.3340 252° West 382 440 38,000  Level FlightAware ADS-B
Fri 08:55:07 AM 47.9310 -50.4400 257° West 365 420 38,000  Level FlightAware ADS-B
Fri 08:55:52 AM 47.9330 -50.5410 272° West 350 403 38,000  Level FlightAware ADS-B
Fri 08:56:22 AM 47.9470 -50.6150 286° West 339 390 38,000  Level FlightAware ADS-B
Fri 08:57:12 AM 47.9760 -50.7260 291° West 338 389 38,000  Level FlightAware ADS-B
Fri 08:57:52 AM 47.9980 -50.8120 255° West 337 388 38,000  Level FlightAware ADS-B
Fri 08:58:32 AM 48.0210 -50.8990 292° West 337 388 38,000  Level FlightAware ADS-B
Fri 09:00:12 AM 48.0760 -51.1130 291° West 338 389 38,000  Level FlightAware ADS-B
Fri 09:01:22 AM 48.1150 -51.2660 291° West 337 388 38,000  Level FlightAware ADS-B
Fri 09:02:37 AM 48.1570 -51.4300 291° West 338 389 38,000  Level FlightAware ADS-B
Fri 09:03:12 AM 48.1760 -51.5040 291° West 339 390 38,000  Level FlightAware ADS-B
Fri 09:04:57 AM 48.2350 -51.7400 291° West 339 390 38,000  Level FlightAware ADS-B
Fri 09:06:07 AM 48.2730 -51.8950 290° West 341 392 38,000  Level FlightAware ADS-B
Fri 09:06:47 AM 48.2950 -51.9850 290° West 341 392 38,000  Level FlightAware ADS-B
Fri 09:07:27 AM 48.3170 -52.0740 290° West 340 391 38,000  Level FlightAware ADS-B
Fri 09:08:12 AM 48.3410 -52.1740 290° West 341 392 38,000  Level FlightAware ADS-B
Fri 09:08:52 AM 48.3630 -52.2620 291° West 341 392 38,000 -988 Level FlightAware ADS-B
Fri 09:09:37 AM 48.3870 -52.3610 290° West 344 396 36,600 -2,541 Descending FlightAware ADS-B
Fri 09:10:17 AM 48.4090 -52.4550 289° West 354 407 34,400 -3,529 Descending FlightAware ADS-B
Fri 09:11:02 AM 48.4350 -52.5620 290° West 368 423 31,600 -3,529 Descending FlightAware ADS-B
Fri 09:11:42 AM 48.4580 -52.6590 290° West 381 438 29,400 -3,300 Descending FlightAware ADS-B
Fri 09:12:22 AM 48.4810 -52.7600 289° West 384 442 27,200 -3,035 Descending FlightAware ADS-B
Fri 09:13:07 AM 48.5080 -52.8740 290° West 378 435 25,100 -2,612 Descending FlightAware ADS-B
Fri 09:13:47 AM 48.5310 -52.9700 290° West 372 428 23,500 -3,247 Descending FlightAware ADS-B
Fri 09:14:32 AM 48.5570 -53.0830 289° West 357 411 20,500 -3,953 Descending FlightAware ADS-B
Fri 09:15:12 AM 48.5790 -53.1770 290° West 352 405 17,900 -3,675 Descending FlightAware ADS-B
Fri 09:15:52 AM 48.6000 -53.2710 289° West 349 402 15,600 -2,894 Descending FlightAware ADS-B
Fri 09:16:37 AM 48.6230 -53.3720 289° West 342 394 13,800 -2,541 Descending FlightAware ADS-B
Fri 09:17:17 AM 48.6440 -53.4640 289° West 343 395 12,000 -2,047 Descending FlightAware ADS-B
Fri 09:18:02 AM 48.6610 -53.5680 284° West 344 396 10,900 -1,125 Descending FlightAware ADS-B
Fri 09:18:37 AM 48.6690 -53.6470 279° West 344 396 10,500 -675 Descending FlightAware ADS-B
Fri 09:19:22 AM 48.6800 -53.7590 279° West 336 387 10,000 -514 Descending FlightAware ADS-B
Fri 09:19:47 AM 48.6860 -53.8130 280° West 314 361 9,900 -218 Descending FlightAware ADS-B
Fri 09:20:17 AM 48.6930 -53.8770 279° West 285 328 9,800 -218 Descending FlightAware ADS-B
Fri 09:20:42 AM 48.6990 -53.9240 281° West 266 306 9,700 -600 Descending FlightAware ADS-B
Fri 09:21:17 AM 48.7070 -53.9840 281° West 255 293 9,200 -1,000 Descending FlightAware ADS-B
Fri 09:21:42 AM 48.7130 -54.0300 281° West 251 289 8,700 -1,200 Descending FlightAware ADS-B
Fri 09:22:12 AM 48.7180 -54.0790 279° West 249 287 8,100 -1,091 Descending FlightAware ADS-B
Fri 09:22:37 AM 48.7230 -54.1230 280° West 245 282 7,700 -933 Descending FlightAware ADS-B
Fri 09:22:57 AM 48.7260 -54.1490 280° West 243 280 7,400 -632 Descending FlightAware ADS-B
Fri 09:23:15 AM 48.7500 -54.1500 280° West 250 288 7,300 -904 Descending Gander Center
Fri 09:24:10 AM 48.7500 -54.2333 270° West 240 276 6,300 -1,043 Descending Gander Center
Fri 09:25:10 AM 48.7667 -54.3333 284° West 230 265 5,300 -1,150 Descending Gander Center
Fri 09:26:10 AM 48.8000 -54.4333 297° West 230 265 4,000 -700 Descending Gander Center
Fri 09:27:10 AM 48.8167 -54.5167 287° West 230 265 3,900 -50 Descending Gander Center
Fri 09:28:10 AM 48.8333 -54.6000 287° West 230 265 3,900 -750 Level Gander Center
Fri 09:29:10 AM 48.8667 -54.7000 297° West 220 253 2,400 -900 Descending Gander Center
Fri 09:30:10 AM 48.8833 -54.7667 291° West 220 253 2,100 -100 Descending Gander Center
Fri 09:31:10 AM 48.9167 -54.8167 315° West 200 230 2,200  Climbing Gander Center
Fri 09:32:10 AM 48.9833 -54.7833 18° North 200 230 2,100 -50 Descending Gander Center
Fri 09:33:10 AM 48.9833 -54.7000 90° East 200 230 2,100 -150 Level Gander Center
Fri 09:34:10 AM 48.9500 -54.6333 127° Southeast 190 219 1,800 -550 Descending Gander Center
Fri 09:35:10 AM 48.9500 -54.5500 90° East 150 173 1,000 -650 Descending Gander Center
Fri 09:36:10 AM 48.9333 -54.5167 127° Southeast 130 150 500 -500 Descending Gander Center

Login

Don't have an account? Register now (free) for customized features, flight alerts, and more!